Balaou — FAB9053 — position and weather

sailwx.info

Track history (hours):
 
Tides and Currents Weather Stations Pressure Air Temp Water Temp Dewpoint Dewpoint Depression Visibility Wind Speed Wind Dir Waves Ship Positions

Balaou

Last reported at 2017-Sep-07 10:59 UTC. Time now 2017-Nov-23 03:56 UTC.
Position N 47°33' W 002°54'.
Warning: this ship's position is months out of date.

Length 10 m.

Type: Pleasure craft. MMSI: 227250830.

Date/timePositionNaut miles runAvg speedWind from/ knotsBaromVisibWave heightAir tempDewpointWater temp
2017-Sep-07 10:59N 47°33' W 002°54'2 3.7
2017-Sep-07 10:30N 47°31' W 002°53'4 7.0
2017-Sep-07 09:59N 47°28' W 002°50'4 7.3
2017-Sep-07 09:28N 47°26' W 002°46'4 7.5
2017-Sep-07 08:57N 47°23' W 002°41'  
2017-Sep-02 10:34N 47°17' W 002°41'1 7.7
2017-Sep-02 10:30N 47°17' W 002°42'5 7.6
2017-Sep-02 09:54N 47°21' W 002°46'3 7.4
2017-Sep-02 09:29N 47°23' W 002°48'4 7.4
2017-Sep-02 09:00N 47°27' W 002°51'  
Track history (hours):
 
Tides and Currents Weather Stations Pressure Air Temp Water Temp Dewpoint Dewpoint Depression Visibility Wind Speed Wind Dir Waves Ship Positions

Balaou

Last reported at 2017-Sep-07 10:59 UTC. Time now 2017-Nov-23 03:56 UTC.
Position N 47°33' W 002°54'.
Warning: this ship's position is months out of date.

Length 10 m.

Type: Pleasure craft. MMSI: 227250830.

Date/timePositionNaut miles runAvg speedWind from/ knotsBaromVisibWave heightAir tempDewpointWater temp
2017-Sep-07 10:59N 47°33' W 002°54'2 3.7
2017-Sep-07 10:30N 47°31' W 002°53'4 7.0
2017-Sep-07 09:59N 47°28' W 002°50'4 7.3
2017-Sep-07 09:28N 47°26' W 002°46'4 7.5
2017-Sep-07 08:57N 47°23' W 002°41'  
2017-Sep-02 10:34N 47°17' W 002°41'1 7.7
2017-Sep-02 10:30N 47°17' W 002°42'5 7.6
2017-Sep-02 09:54N 47°21' W 002°46'3 7.4
2017-Sep-02 09:29N 47°23' W 002°48'4 7.4
2017-Sep-02 09:00N 47°27' W 002°51'  

Dump ship's entire track history